sensor_id;sensor_type;location;lat;lon;timestamp;P1;durP1;ratioP1;P2;durP2;ratioP2
62790;SDS011;48830;53.426;10.300;2023-11-21T00:01:01;1.55;;;1.00;;
62790;SDS011;48830;53.426;10.300;2023-11-21T00:03:29;2.17;;;1.08;;
62790;SDS011;48830;53.426;10.300;2023-11-21T00:05:54;2.40;;;1.30;;
62790;SDS011;48830;53.426;10.300;2023-11-21T00:08:20;2.53;;;1.27;;
62790;SDS011;48830;53.426;10.300;2023-11-21T00:10:45;1.67;;;1.15;;
62790;SDS011;48830;53.426;10.300;2023-11-21T00:13:11;1.88;;;1.33;;
62790;SDS011;48830;53.426;10.300;2023-11-21T00:15:37;3.28;;;1.10;;
62790;SDS011;48830;53.426;10.300;2023-11-21T00:18:03;1.02;;;0.93;;
62790;SDS011;48830;53.426;10.300;2023-11-21T00:20:28;1.95;;;1.20;;
62790;SDS011;48830;53.426;10.300;2023-11-21T00:22:54;1.55;;;1.23;;
62790;SDS011;48830;53.426;10.300;2023-11-21T00:25:19;1.42;;;1.00;;
62790;SDS011;48830;53.426;10.300;2023-11-21T00:27:45;1.58;;;1.15;;
62790;SDS011;48830;53.426;10.300;2023-11-21T00:30:11;1.73;;;1.17;;
62790;SDS011;48830;53.426;10.300;2023-11-21T00:32:37;1.95;;;1.25;;
62790;SDS011;48830;53.426;10.300;2023-11-21T00:35:03;1.85;;;1.20;;
62790;SDS011;48830;53.426;10.300;2023-11-21T00:37:28;1.55;;;1.02;;
62790;SDS011;48830;53.426;10.300;2023-11-21T00:39:54;2.05;;;1.17;;
62790;SDS011;48830;53.426;10.300;2023-11-21T00:42:19;2.58;;;1.20;;
62790;SDS011;48830;53.426;10.300;2023-11-21T00:44:46;1.35;;;1.00;;
62790;SDS011;48830;53.426;10.300;2023-11-21T00:47:12;1.10;;;1.00;;
62790;SDS011;48830;53.426;10.300;2023-11-21T00:49:39;1.10;;;1.00;;
62790;SDS011;48830;53.426;10.300;2023-11-21T00:52:04;2.33;;;1.13;;
62790;SDS011;48830;53.426;10.300;2023-11-21T00:54:30;2.72;;;1.00;;
62790;SDS011;48830;53.426;10.300;2023-11-21T00:56:56;1.88;;;1.30;;
62790;SDS011;48830;53.426;10.300;2023-11-21T00:59:22;1.15;;;1.00;;
62790;SDS011;48830;53.426;10.300;2023-11-21T01:01:48;1.52;;;1.10;;
62790;SDS011;48830;53.426;10.300;2023-11-21T01:04:14;1.77;;;1.35;;
62790;SDS011;48830;53.426;10.300;2023-11-21T01:06:39;1.50;;;1.30;;
62790;SDS011;48830;53.426;10.300;2023-11-21T01:09:04;1.33;;;1.05;;
62790;SDS011;48830;53.426;10.300;2023-11-21T01:11:36;2.70;;;1.40;;
62790;SDS011;48830;53.426;10.300;2023-11-21T01:14:05;1.90;;;1.10;;
62790;SDS011;48830;53.426;10.300;2023-11-21T01:16:31;1.40;;;1.02;;
62790;SDS011;48830;53.426;10.300;2023-11-21T01:18:59;1.52;;;1.00;;
62790;SDS011;48830;53.426;10.300;2023-11-21T01:21:25;3.15;;;1.30;;
62790;SDS011;48830;53.426;10.300;2023-11-21T01:23:51;2.47;;;1.10;;
62790;SDS011;48830;53.426;10.300;2023-11-21T01:26:16;2.22;;;1.10;;
62790;SDS011;48830;53.426;10.300;2023-11-21T01:28:42;3.38;;;1.30;;
62790;SDS011;48830;53.426;10.300;2023-11-21T01:31:07;1.75;;;1.25;;
62790;SDS011;48830;53.426;10.300;2023-11-21T01:33:33;2.15;;;1.45;;
62790;SDS011;48830;53.426;10.300;2023-11-21T01:35:58;1.75;;;1.13;;
62790;SDS011;48830;53.426;10.300;2023-11-21T01:38:25;3.15;;;1.20;;
62790;SDS011;48830;53.426;10.300;2023-11-21T01:40:50;2.20;;;1.20;;
62790;SDS011;48830;53.426;10.300;2023-11-21T01:43:17;1.05;;;0.95;;
62790;SDS011;48830;53.426;10.300;2023-11-21T01:45:43;1.48;;;1.10;;
62790;SDS011;48830;53.426;10.300;2023-11-21T01:48:10;2.03;;;1.30;;
62790;SDS011;48830;53.426;10.300;2023-11-21T01:50:36;1.63;;;1.15;;
62790;SDS011;48830;53.426;10.300;2023-11-21T01:53:02;1.67;;;1.02;;
62790;SDS011;48830;53.426;10.300;2023-11-21T01:55:28;2.13;;;1.00;;
62790;SDS011;48830;53.426;10.300;2023-11-21T01:57:55;1.33;;;1.00;;
62790;SDS011;48830;53.426;10.300;2023-11-21T02:00:22;2.05;;;1.10;;
62790;SDS011;48830;53.426;10.300;2023-11-21T02:02:48;1.75;;;1.00;;
62790;SDS011;48830;53.426;10.300;2023-11-21T02:05:15;2.08;;;1.30;;
62790;SDS011;48830;53.426;10.300;2023-11-21T02:07:44;1.33;;;0.98;;
62790;SDS011;48830;53.426;10.300;2023-11-21T02:10:11;2.58;;;1.10;;
62790;SDS011;48830;53.426;10.300;2023-11-21T02:12:43;1.98;;;0.90;;
62790;SDS011;48830;53.426;10.300;2023-11-21T02:15:12;3.42;;;1.30;;
62790;SDS011;48830;53.426;10.300;2023-11-21T02:17:51;1.83;;;1.10;;
62790;SDS011;48830;53.426;10.300;2023-11-21T02:20:19;1.15;;;1.00;;
62790;SDS011;48830;53.426;10.300;2023-11-21T02:22:52;1.85;;;1.02;;
62790;SDS011;48830;53.426;10.300;2023-11-21T02:25:29;3.00;;;1.10;;
62790;SDS011;48830;53.426;10.300;2023-11-21T02:27:56;1.00;;;0.90;;
62790;SDS011;48830;53.426;10.300;2023-11-21T02:30:23;1.30;;;1.00;;
62790;SDS011;48830;53.426;10.300;2023-11-21T02:32:53;1.88;;;1.20;;
62790;SDS011;48830;53.426;10.300;2023-11-21T02:35:19;1.52;;;1.10;;
62790;SDS011;48830;53.426;10.300;2023-11-21T02:37:48;2.78;;;1.20;;
62790;SDS011;48830;53.426;10.300;2023-11-21T02:40:15;1.88;;;1.17;;
62790;SDS011;48830;53.426;10.300;2023-11-21T02:42:46;1.55;;;1.08;;
62790;SDS011;48830;53.426;10.300;2023-11-21T02:45:13;1.20;;;1.10;;
62790;SDS011;48830;53.426;10.300;2023-11-21T02:47:40;1.15;;;1.00;;
62790;SDS011;48830;53.426;10.300;2023-11-21T02:50:06;1.38;;;1.27;;
62790;SDS011;48830;53.426;10.300;2023-11-21T02:52:34;2.08;;;1.38;;
62790;SDS011;48830;53.426;10.300;2023-11-21T02:55:00;1.75;;;1.20;;
62790;SDS011;48830;53.426;10.300;2023-11-21T02:57:26;1.40;;;0.98;;
62790;SDS011;48830;53.426;10.300;2023-11-21T02:59:52;1.52;;;1.15;;
62790;SDS011;48830;53.426;10.300;2023-11-21T03:02:17;1.75;;;1.10;;
62790;SDS011;48830;53.426;10.300;2023-11-21T03:04:43;1.38;;;1.15;;
62790;SDS011;48830;53.426;10.300;2023-11-21T03:07:09;1.30;;;1.10;;
62790;SDS011;48830;53.426;10.300;2023-11-21T03:09:35;1.52;;;1.10;;
62790;SDS011;48830;53.426;10.300;2023-11-21T03:12:00;1.10;;;0.88;;
62790;SDS011;48830;53.426;10.300;2023-11-21T03:14:27;1.60;;;1.10;;
62790;SDS011;48830;53.426;10.300;2023-11-21T03:16:52;2.35;;;1.20;;
62790;SDS011;48830;53.426;10.300;2023-11-21T03:19:18;1.92;;;1.20;;
62790;SDS011;48830;53.426;10.300;2023-11-21T03:21:43;1.60;;;1.08;;
62790;SDS011;48830;53.426;10.300;2023-11-21T03:24:09;2.28;;;1.00;;
62790;SDS011;48830;53.426;10.300;2023-11-21T03:26:34;1.40;;;0.90;;
62790;SDS011;48830;53.426;10.300;2023-11-21T03:29:00;1.40;;;1.00;;
62790;SDS011;48830;53.426;10.300;2023-11-21T03:31:25;1.20;;;1.00;;
62790;SDS011;48830;53.426;10.300;2023-11-21T03:33:52;0.93;;;0.82;;
62790;SDS011;48830;53.426;10.300;2023-11-21T03:36:19;1.52;;;0.80;;
62790;SDS011;48830;53.426;10.300;2023-11-21T03:38:45;1.65;;;1.00;;
62790;SDS011;48830;53.426;10.300;2023-11-21T03:41:10;2.05;;;1.20;;
62790;SDS011;48830;53.426;10.300;2023-11-21T03:43:36;1.38;;;1.05;;
62790;SDS011;48830;53.426;10.300;2023-11-21T03:46:02;1.33;;;0.93;;
62790;SDS011;48830;53.426;10.300;2023-11-21T03:48:28;1.77;;;1.23;;
62790;SDS011;48830;53.426;10.300;2023-11-21T03:50:53;2.08;;;0.90;;
62790;SDS011;48830;53.426;10.300;2023-11-21T03:53:19;1.85;;;1.17;;
62790;SDS011;48830;53.426;10.300;2023-11-21T03:55:44;1.27;;;1.00;;
62790;SDS011;48830;53.426;10.300;2023-11-21T03:58:10;2.05;;;1.08;;
62790;SDS011;48830;53.426;10.300;2023-11-21T04:00:36;1.35;;;1.13;;
62790;SDS011;48830;53.426;10.300;2023-11-21T04:03:01;0.95;;;0.90;;
62790;SDS011;48830;53.426;10.300;2023-11-21T04:05:27;1.27;;;1.00;;
62790;SDS011;48830;53.426;10.300;2023-11-21T04:07:53;1.77;;;1.17;;
62790;SDS011;48830;53.426;10.300;2023-11-21T04:10:18;0.90;;;0.80;;
62790;SDS011;48830;53.426;10.300;2023-11-21T04:12:44;1.30;;;1.20;;
62790;SDS011;48830;53.426;10.300;2023-11-21T04:15:10;1.40;;;1.10;;
62790;SDS011;48830;53.426;10.300;2023-11-21T04:17:37;1.27;;;0.98;;
62790;SDS011;48830;53.426;10.300;2023-11-21T04:20:04;1.92;;;1.10;;
62790;SDS011;48830;53.426;10.300;2023-11-21T04:22:34;2.08;;;1.00;;
62790;SDS011;48830;53.426;10.300;2023-11-21T04:25:01;2.85;;;1.30;;
62790;SDS011;48830;53.426;10.300;2023-11-21T04:27:27;2.00;;;1.10;;
62790;SDS011;48830;53.426;10.300;2023-11-21T04:29:52;1.77;;;1.20;;
62790;SDS011;48830;53.426;10.300;2023-11-21T04:32:18;1.33;;;1.10;;
62790;SDS011;48830;53.426;10.300;2023-11-21T04:34:43;1.70;;;1.20;;
62790;SDS011;48830;53.426;10.300;2023-11-21T04:37:09;2.17;;;1.27;;
62790;SDS011;48830;53.426;10.300;2023-11-21T04:39:35;1.80;;;1.20;;
62790;SDS011;48830;53.426;10.300;2023-11-21T04:42:01;2.47;;;1.23;;
62790;SDS011;48830;53.426;10.300;2023-11-21T04:44:27;1.77;;;1.20;;
62790;SDS011;48830;53.426;10.300;2023-11-21T04:46:52;1.73;;;1.00;;
62790;SDS011;48830;53.426;10.300;2023-11-21T04:49:18;1.70;;;0.98;;
62790;SDS011;48830;53.426;10.300;2023-11-21T04:51:43;1.73;;;1.30;;
62790;SDS011;48830;53.426;10.300;2023-11-21T04:54:09;2.25;;;1.30;;
62790;SDS011;48830;53.426;10.300;2023-11-21T04:56:34;1.27;;;1.17;;
62790;SDS011;48830;53.426;10.300;2023-11-21T04:59:00;2.00;;;1.10;;
62790;SDS011;48830;53.426;10.300;2023-11-21T05:01:25;1.30;;;1.00;;
62790;SDS011;48830;53.426;10.300;2023-11-21T05:03:51;2.00;;;1.20;;
62790;SDS011;48830;53.426;10.300;2023-11-21T05:06:17;1.23;;;1.00;;
62790;SDS011;48830;53.426;10.300;2023-11-21T05:08:43;2.35;;;1.15;;
62790;SDS011;48830;53.426;10.300;2023-11-21T05:11:08;2.47;;;1.00;;
62790;SDS011;48830;53.426;10.300;2023-11-21T05:13:35;1.95;;;1.20;;
62790;SDS011;48830;53.426;10.300;2023-11-21T05:16:01;1.08;;;0.90;;
62790;SDS011;48830;53.426;10.300;2023-11-21T05:18:29;2.40;;;1.00;;
62790;SDS011;48830;53.426;10.300;2023-11-21T05:20:55;2.45;;;0.90;;
62790;SDS011;48830;53.426;10.300;2023-11-21T05:23:21;1.45;;;1.20;;
62790;SDS011;48830;53.426;10.300;2023-11-21T05:25:46;1.83;;;1.02;;
62790;SDS011;48830;53.426;10.300;2023-11-21T05:28:12;0.95;;;0.80;;
62790;SDS011;48830;53.426;10.300;2023-11-21T05:30:38;1.38;;;0.98;;
62790;SDS011;48830;53.426;10.300;2023-11-21T05:33:04;1.38;;;1.00;;
62790;SDS011;48830;53.426;10.300;2023-11-21T05:35:30;2.72;;;0.93;;
62790;SDS011;48830;53.426;10.300;2023-11-21T05:37:56;1.50;;;1.00;;
62790;SDS011;48830;53.426;10.300;2023-11-21T05:40:22;1.13;;;0.90;;
62790;SDS011;48830;53.426;10.300;2023-11-21T05:42:47;1.58;;;1.00;;
62790;SDS011;48830;53.426;10.300;2023-11-21T05:45:13;1.63;;;1.10;;
62790;SDS011;48830;53.426;10.300;2023-11-21T05:47:43;3.28;;;1.30;;
62790;SDS011;48830;53.426;10.300;2023-11-21T05:50:12;2.10;;;1.38;;
62790;SDS011;48830;53.426;10.300;2023-11-21T05:52:46;1.42;;;1.13;;
62790;SDS011;48830;53.426;10.300;2023-11-21T05:55:13;2.40;;;1.05;;
62790;SDS011;48830;53.426;10.300;2023-11-21T05:57:39;1.33;;;1.00;;
62790;SDS011;48830;53.426;10.300;2023-11-21T06:00:07;1.48;;;0.93;;
62790;SDS011;48830;53.426;10.300;2023-11-21T06:02:45;1.38;;;1.10;;
62790;SDS011;48830;53.426;10.300;2023-11-21T06:05:11;0.88;;;0.88;;
62790;SDS011;48830;53.426;10.300;2023-11-21T06:07:37;1.10;;;0.93;;
62790;SDS011;48830;53.426;10.300;2023-11-21T06:10:03;1.00;;;0.95;;
62790;SDS011;48830;53.426;10.300;2023-11-21T06:12:36;1.33;;;1.00;;
62790;SDS011;48830;53.426;10.300;2023-11-21T06:15:03;0.95;;;0.85;;
62790;SDS011;48830;53.426;10.300;2023-11-21T06:17:33;1.33;;;1.00;;
62790;SDS011;48830;53.426;10.300;2023-11-21T06:20:02;1.45;;;1.10;;
62790;SDS011;48830;53.426;10.300;2023-11-21T06:22:37;1.45;;;1.10;;
62790;SDS011;48830;53.426;10.300;2023-11-21T06:25:04;2.25;;;1.00;;
62790;SDS011;48830;53.426;10.300;2023-11-21T06:27:34;1.42;;;1.05;;
62790;SDS011;48830;53.426;10.300;2023-11-21T06:30:01;1.17;;;0.90;;
62790;SDS011;48830;53.426;10.300;2023-11-21T06:32:27;1.27;;;0.90;;
62790;SDS011;48830;53.426;10.300;2023-11-21T06:34:55;1.17;;;1.05;;
62790;SDS011;48830;53.426;10.300;2023-11-21T06:37:21;1.50;;;0.93;;
62790;SDS011;48830;53.426;10.300;2023-11-21T06:39:51;1.95;;;1.13;;
62790;SDS011;48830;53.426;10.300;2023-11-21T06:42:19;1.77;;;1.00;;
62790;SDS011;48830;53.426;10.300;2023-11-21T06:44:46;1.10;;;1.00;;
62790;SDS011;48830;53.426;10.300;2023-11-21T06:47:11;1.33;;;0.90;;
62790;SDS011;48830;53.426;10.300;2023-11-21T06:49:37;2.85;;;1.25;;
62790;SDS011;48830;53.426;10.300;2023-11-21T06:52:04;2.38;;;1.33;;
62790;SDS011;48830;53.426;10.300;2023-11-21T06:54:30;1.73;;;1.10;;
62790;SDS011;48830;53.426;10.300;2023-11-21T06:56:56;1.30;;;1.00;;
62790;SDS011;48830;53.426;10.300;2023-11-21T06:59:23;1.13;;;0.88;;
62790;SDS011;48830;53.426;10.300;2023-11-21T07:01:49;3.38;;;1.20;;
62790;SDS011;48830;53.426;10.300;2023-11-21T07:04:15;1.67;;;1.05;;
62790;SDS011;48830;53.426;10.300;2023-11-21T07:06:41;1.55;;;1.10;;
62790;SDS011;48830;53.426;10.300;2023-11-21T07:09:08;1.30;;;1.08;;
62790;SDS011;48830;53.426;10.300;2023-11-21T07:11:37;1.65;;;1.00;;
62790;SDS011;48830;53.426;10.300;2023-11-21T07:14:03;1.67;;;1.00;;
62790;SDS011;48830;53.426;10.300;2023-11-21T07:16:35;1.55;;;1.00;;
62790;SDS011;48830;53.426;10.300;2023-11-21T07:19:04;1.40;;;1.05;;
62790;SDS011;48830;53.426;10.300;2023-11-21T07:21:34;1.45;;;1.05;;
62790;SDS011;48830;53.426;10.300;2023-11-21T07:24:01;1.33;;;1.10;;
62790;SDS011;48830;53.426;10.300;2023-11-21T07:26:31;1.35;;;1.02;;
62790;SDS011;48830;53.426;10.300;2023-11-21T07:28:57;1.27;;;1.05;;
62790;SDS011;48830;53.426;10.300;2023-11-21T07:31:23;2.00;;;1.10;;
62790;SDS011;48830;53.426;10.300;2023-11-21T07:33:49;1.25;;;1.10;;
62790;SDS011;48830;53.426;10.300;2023-11-21T07:36:15;2.15;;;1.23;;
62790;SDS011;48830;53.426;10.300;2023-11-21T07:38:43;1.92;;;1.20;;
62790;SDS011;48830;53.426;10.300;2023-11-21T07:41:09;2.33;;;1.20;;
62790;SDS011;48830;53.426;10.300;2023-11-21T07:43:35;1.92;;;1.23;;
62790;SDS011;48830;53.426;10.300;2023-11-21T07:46:01;1.55;;;1.10;;
62790;SDS011;48830;53.426;10.300;2023-11-21T07:48:28;1.83;;;1.10;;
62790;SDS011;48830;53.426;10.300;2023-11-21T07:50:54;1.77;;;1.20;;
62790;SDS011;48830;53.426;10.300;2023-11-21T07:53:20;1.88;;;1.13;;
62790;SDS011;48830;53.426;10.300;2023-11-21T07:55:47;1.42;;;1.08;;
62790;SDS011;48830;53.426;10.300;2023-11-21T07:58:12;1.15;;;1.00;;
62790;SDS011;48830;53.426;10.300;2023-11-21T08:00:38;2.70;;;1.13;;
62790;SDS011;48830;53.426;10.300;2023-11-21T08:03:04;1.40;;;1.20;;
62790;SDS011;48830;53.426;10.300;2023-11-21T08:05:31;3.90;;;1.55;;
62790;SDS011;48830;53.426;10.300;2023-11-21T08:07:57;1.85;;;1.27;;
62790;SDS011;48830;53.426;10.300;2023-11-21T08:10:22;2.13;;;1.40;;
62790;SDS011;48830;53.426;10.300;2023-11-21T08:12:47;2.60;;;1.10;;
62790;SDS011;48830;53.426;10.300;2023-11-21T08:15:13;2.17;;;1.10;;
62790;SDS011;48830;53.426;10.300;2023-11-21T08:17:39;2.35;;;1.40;;
62790;SDS011;48830;53.426;10.300;2023-11-21T08:20:06;2.30;;;0.90;;
62790;SDS011;48830;53.426;10.300;2023-11-21T08:22:33;2.38;;;1.20;;
62790;SDS011;48830;53.426;10.300;2023-11-21T08:24:59;1.38;;;1.10;;
62790;SDS011;48830;53.426;10.300;2023-11-21T08:27:25;2.25;;;1.00;;
62790;SDS011;48830;53.426;10.300;2023-11-21T08:29:50;2.10;;;1.10;;
62790;SDS011;48830;53.426;10.300;2023-11-21T08:32:17;1.38;;;1.10;;
62790;SDS011;48830;53.426;10.300;2023-11-21T08:34:43;2.25;;;1.30;;
62790;SDS011;48830;53.426;10.300;2023-11-21T08:37:09;2.83;;;1.40;;
62790;SDS011;48830;53.426;10.300;2023-11-21T08:39:36;2.25;;;1.40;;
62790;SDS011;48830;53.426;10.300;2023-11-21T08:42:02;1.77;;;1.27;;
62790;SDS011;48830;53.426;10.300;2023-11-21T08:44:28;1.88;;;1.23;;
62790;SDS011;48830;53.426;10.300;2023-11-21T08:46:55;1.63;;;1.20;;
62790;SDS011;48830;53.426;10.300;2023-11-21T08:49:21;1.30;;;1.00;;
62790;SDS011;48830;53.426;10.300;2023-11-21T08:51:46;1.55;;;1.20;;
62790;SDS011;48830;53.426;10.300;2023-11-21T08:54:11;3.28;;;1.10;;
62790;SDS011;48830;53.426;10.300;2023-11-21T08:56:37;1.40;;;1.30;;
62790;SDS011;48830;53.426;10.300;2023-11-21T08:59:03;1.67;;;1.20;;
62790;SDS011;48830;53.426;10.300;2023-11-21T09:01:31;1.58;;;1.02;;
62790;SDS011;48830;53.426;10.300;2023-11-21T09:03:57;2.90;;;1.35;;
62790;SDS011;48830;53.426;10.300;2023-11-21T09:06:23;1.48;;;1.20;;
62790;SDS011;48830;53.426;10.300;2023-11-21T09:08:49;1.92;;;1.15;;
62790;SDS011;48830;53.426;10.300;2023-11-21T09:11:17;12.13;;;3.72;;
62790;SDS011;48830;53.426;10.300;2023-11-21T09:13:42;5.90;;;3.42;;
62790;SDS011;48830;53.426;10.300;2023-11-21T09:16:08;5.32;;;2.80;;
62790;SDS011;48830;53.426;10.300;2023-11-21T09:18:33;6.93;;;2.92;;
62790;SDS011;48830;53.426;10.300;2023-11-21T09:20:59;4.95;;;2.20;;
62790;SDS011;48830;53.426;10.300;2023-11-21T09:23:24;4.50;;;2.40;;
62790;SDS011;48830;53.426;10.300;2023-11-21T09:25:50;5.25;;;2.20;;
62790;SDS011;48830;53.426;10.300;2023-11-21T09:28:17;5.32;;;2.95;;
62790;SDS011;48830;53.426;10.300;2023-11-21T09:30:43;4.55;;;2.45;;
62790;SDS011;48830;53.426;10.300;2023-11-21T09:33:08;7.07;;;2.47;;
62790;SDS011;48830;53.426;10.300;2023-11-21T09:35:38;6.38;;;2.33;;
62790;SDS011;48830;53.426;10.300;2023-11-21T09:38:04;4.82;;;2.45;;
62790;SDS011;48830;53.426;10.300;2023-11-21T09:40:36;5.25;;;2.42;;
62790;SDS011;48830;53.426;10.300;2023-11-21T09:43:06;4.93;;;2.22;;
62790;SDS011;48830;53.426;10.300;2023-11-21T09:45:34;7.07;;;2.33;;
62790;SDS011;48830;53.426;10.300;2023-11-21T09:48:01;8.10;;;2.42;;
62790;SDS011;48830;53.426;10.300;2023-11-21T09:50:27;6.57;;;2.67;;
62790;SDS011;48830;53.426;10.300;2023-11-21T09:55:49;5.22;;;2.30;;
62790;SDS011;48830;53.426;10.300;2023-11-21T09:58:16;6.28;;;2.38;;
62790;SDS011;48830;53.426;10.300;2023-11-21T10:00:43;4.35;;;2.15;;
62790;SDS011;48830;53.426;10.300;2023-11-21T10:03:10;7.43;;;2.42;;
62790;SDS011;48830;53.426;10.300;2023-11-21T10:05:37;4.35;;;2.13;;
62790;SDS011;48830;53.426;10.300;2023-11-21T10:08:10;4.15;;;2.10;;
62790;SDS011;48830;53.426;10.300;2023-11-21T10:10:36;6.50;;;2.45;;
62790;SDS011;48830;53.426;10.300;2023-11-21T10:13:04;7.60;;;2.33;;
62790;SDS011;48830;53.426;10.300;2023-11-21T10:15:35;5.28;;;2.17;;
62790;SDS011;48830;53.426;10.300;2023-11-21T10:18:02;6.88;;;2.33;;
62790;SDS011;48830;53.426;10.300;2023-11-21T10:20:28;5.40;;;2.10;;
62790;SDS011;48830;53.426;10.300;2023-11-21T10:22:55;5.28;;;2.10;;
62790;SDS011;48830;53.426;10.300;2023-11-21T10:25:22;4.35;;;2.10;;
62790;SDS011;48830;53.426;10.300;2023-11-21T10:27:48;4.07;;;1.80;;
62790;SDS011;48830;53.426;10.300;2023-11-21T10:30:17;7.80;;;2.17;;
62790;SDS011;48830;53.426;10.300;2023-11-21T10:32:43;5.43;;;2.17;;
62790;SDS011;48830;53.426;10.300;2023-11-21T10:35:09;5.95;;;2.25;;
62790;SDS011;48830;53.426;10.300;2023-11-21T10:37:39;4.57;;;1.88;;
62790;SDS011;48830;53.426;10.300;2023-11-21T10:40:08;4.72;;;1.90;;
62790;SDS011;48830;53.426;10.300;2023-11-21T10:42:37;6.20;;;2.55;;
62790;SDS011;48830;53.426;10.300;2023-11-21T10:45:04;5.72;;;2.03;;
62790;SDS011;48830;53.426;10.300;2023-11-21T10:47:37;4.97;;;2.20;;
62790;SDS011;48830;53.426;10.300;2023-11-21T10:50:03;5.22;;;2.10;;
62790;SDS011;48830;53.426;10.300;2023-11-21T10:52:29;5.90;;;2.50;;
62790;SDS011;48830;53.426;10.300;2023-11-21T10:54:55;4.43;;;2.05;;
62790;SDS011;48830;53.426;10.300;2023-11-21T10:57:20;4.30;;;1.80;;
62790;SDS011;48830;53.426;10.300;2023-11-21T10:59:48;3.10;;;1.75;;
62790;SDS011;48830;53.426;10.300;2023-11-21T11:02:18;5.57;;;1.95;;
62790;SDS011;48830;53.426;10.300;2023-11-21T11:04:50;3.67;;;1.90;;
62790;SDS011;48830;53.426;10.300;2023-11-21T11:07:17;5.15;;;2.50;;
62790;SDS011;48830;53.426;10.300;2023-11-21T11:09:45;4.88;;;1.83;;
62790;SDS011;48830;53.426;10.300;2023-11-21T11:12:12;3.92;;;2.17;;
62790;SDS011;48830;53.426;10.300;2023-11-21T11:14:40;3.00;;;1.65;;
62790;SDS011;48830;53.426;10.300;2023-11-21T11:17:06;4.70;;;1.80;;
62790;SDS011;48830;53.426;10.300;2023-11-21T11:19:34;2.95;;;1.50;;
62790;SDS011;48830;53.426;10.300;2023-11-21T11:22:09;2.78;;;1.50;;
62790;SDS011;48830;53.426;10.300;2023-11-21T11:38:38;4.22;;;1.83;;
62790;SDS011;48830;53.426;10.300;2023-11-21T11:41:04;2.83;;;1.60;;
62790;SDS011;48830;53.426;10.300;2023-11-21T11:43:31;2.83;;;1.60;;
62790;SDS011;48830;53.426;10.300;2023-11-21T11:46:09;2.90;;;1.58;;
62790;SDS011;48830;53.426;10.300;2023-11-21T11:48:39;3.45;;;1.85;;
62790;SDS011;48830;53.426;10.300;2023-11-21T11:51:06;2.40;;;1.55;;
62790;SDS011;48830;53.426;10.300;2023-11-21T11:53:49;3.40;;;1.80;;
62790;SDS011;48830;53.426;10.300;2023-11-21T11:58:57;2.28;;;1.50;;
62790;SDS011;48830;53.426;10.300;2023-11-21T12:01:27;2.08;;;1.50;;
62790;SDS011;48830;53.426;10.300;2023-11-21T12:06:42;3.40;;;1.40;;
62790;SDS011;48830;53.426;10.300;2023-11-21T12:09:21;4.07;;;1.63;;
62790;SDS011;48830;53.426;10.300;2023-11-21T12:11:49;3.63;;;1.42;;
62790;SDS011;48830;53.426;10.300;2023-11-21T12:14:15;4.50;;;1.88;;
62790;SDS011;48830;53.426;10.300;2023-11-21T12:16:41;2.72;;;1.38;;
62790;SDS011;48830;53.426;10.300;2023-11-21T12:19:08;2.17;;;1.48;;
62790;SDS011;48830;53.426;10.300;2023-11-21T12:21:37;2.45;;;1.50;;
62790;SDS011;48830;53.426;10.300;2023-11-21T12:24:03;1.52;;;1.40;;
62790;SDS011;48830;53.426;10.300;2023-11-21T12:26:29;2.00;;;1.48;;
62790;SDS011;48830;53.426;10.300;2023-11-21T12:28:54;2.53;;;1.48;;
62790;SDS011;48830;53.426;10.300;2023-11-21T12:31:23;3.03;;;1.70;;
62790;SDS011;48830;53.426;10.300;2023-11-21T12:33:48;2.53;;;1.50;;
62790;SDS011;48830;53.426;10.300;2023-11-21T12:36:15;2.72;;;1.50;;
62790;SDS011;48830;53.426;10.300;2023-11-21T12:38:41;2.78;;;1.40;;
62790;SDS011;48830;53.426;10.300;2023-11-21T12:41:07;2.97;;;1.45;;
62790;SDS011;48830;53.426;10.300;2023-11-21T12:43:33;2.97;;;1.83;;
62790;SDS011;48830;53.426;10.300;2023-11-21T12:46:06;2.30;;;1.52;;
62790;SDS011;48830;53.426;10.300;2023-11-21T12:48:36;3.03;;;1.55;;
62790;SDS011;48830;53.426;10.300;2023-11-21T12:51:05;2.92;;;1.67;;
62790;SDS011;48830;53.426;10.300;2023-11-21T12:53:32;3.08;;;1.40;;
62790;SDS011;48830;53.426;10.300;2023-11-21T12:56:02;2.40;;;1.60;;
62790;SDS011;48830;53.426;10.300;2023-11-21T12:58:31;3.30;;;1.50;;
62790;SDS011;48830;53.426;10.300;2023-11-21T13:00:58;2.67;;;1.67;;
62790;SDS011;48830;53.426;10.300;2023-11-21T13:03:24;3.08;;;1.38;;
62790;SDS011;48830;53.426;10.300;2023-11-21T13:05:52;2.67;;;1.50;;
62790;SDS011;48830;53.426;10.300;2023-11-21T13:08:22;3.03;;;1.42;;
62790;SDS011;48830;53.426;10.300;2023-11-21T13:10:51;2.58;;;1.60;;
62790;SDS011;48830;53.426;10.300;2023-11-21T13:13:19;1.60;;;1.20;;
62790;SDS011;48830;53.426;10.300;2023-11-21T13:15:48;2.22;;;1.40;;
62790;SDS011;48830;53.426;10.300;2023-11-21T13:18:14;1.75;;;1.40;;
62790;SDS011;48830;53.426;10.300;2023-11-21T13:20:40;3.05;;;1.40;;
62790;SDS011;48830;53.426;10.300;2023-11-21T13:23:08;1.95;;;1.23;;
62790;SDS011;48830;53.426;10.300;2023-11-21T13:25:37;2.88;;;1.58;;
62790;SDS011;48830;53.426;10.300;2023-11-21T13:28:04;2.88;;;1.50;;
62790;SDS011;48830;53.426;10.300;2023-11-21T13:30:30;2.80;;;1.40;;
62790;SDS011;48830;53.426;10.300;2023-11-21T13:32:59;2.25;;;1.33;;
62790;SDS011;48830;53.426;10.300;2023-11-21T13:35:35;3.25;;;1.30;;
62790;SDS011;48830;53.426;10.300;2023-11-21T13:38:13;2.28;;;1.20;;
62790;SDS011;48830;53.426;10.300;2023-11-21T13:40:42;2.17;;;1.50;;
62790;SDS011;48830;53.426;10.300;2023-11-21T13:43:15;2.25;;;1.58;;
62790;SDS011;48830;53.426;10.300;2023-11-21T13:45:46;2.00;;;1.27;;
62790;SDS011;48830;53.426;10.300;2023-11-21T13:48:15;2.00;;;1.33;;
62790;SDS011;48830;53.426;10.300;2023-11-21T13:50:44;3.38;;;1.55;;
62790;SDS011;48830;53.426;10.300;2023-11-21T13:53:20;2.40;;;1.30;;
62790;SDS011;48830;53.426;10.300;2023-11-21T13:55:49;2.00;;;1.27;;
62790;SDS011;48830;53.426;10.300;2023-11-21T13:58:22;2.42;;;1.30;;
62790;SDS011;48830;53.426;10.300;2023-11-21T14:01:07;2.35;;;1.42;;
62790;SDS011;48830;53.426;10.300;2023-11-21T14:03:53;1.27;;;1.17;;
62790;SDS011;48830;53.426;10.300;2023-11-21T14:06:25;1.98;;;1.30;;
62790;SDS011;48830;53.426;10.300;2023-11-21T14:08:57;2.30;;;1.30;;
62790;SDS011;48830;53.426;10.300;2023-11-21T14:11:23;1.83;;;1.40;;
62790;SDS011;48830;53.426;10.300;2023-11-21T14:13:49;1.55;;;1.17;;
62790;SDS011;48830;53.426;10.300;2023-11-21T14:16:15;2.95;;;1.40;;
62790;SDS011;48830;53.426;10.300;2023-11-21T14:18:45;1.80;;;1.30;;
62790;SDS011;48830;53.426;10.300;2023-11-21T14:21:29;2.42;;;1.30;;
62790;SDS011;48830;53.426;10.300;2023-11-21T14:23:54;1.98;;;1.20;;
62790;SDS011;48830;53.426;10.300;2023-11-21T14:26:20;3.42;;;1.42;;
62790;SDS011;48830;53.426;10.300;2023-11-21T14:28:46;2.55;;;1.45;;
62790;SDS011;48830;53.426;10.300;2023-11-21T14:31:14;2.55;;;1.50;;
62790;SDS011;48830;53.426;10.300;2023-11-21T14:33:42;2.28;;;1.33;;
62790;SDS011;48830;53.426;10.300;2023-11-21T14:36:10;3.38;;;1.50;;
62790;SDS011;48830;53.426;10.300;2023-11-21T14:38:36;1.70;;;1.30;;
62790;SDS011;48830;53.426;10.300;2023-11-21T14:41:04;2.70;;;1.35;;
62790;SDS011;48830;53.426;10.300;2023-11-21T14:43:33;2.17;;;1.30;;
62790;SDS011;48830;53.426;10.300;2023-11-21T14:46:01;3.47;;;1.45;;
62790;SDS011;48830;53.426;10.300;2023-11-21T14:48:28;2.00;;;1.35;;
62790;SDS011;48830;53.426;10.300;2023-11-21T14:51:13;1.80;;;1.45;;
62790;SDS011;48830;53.426;10.300;2023-11-21T14:53:38;2.65;;;1.40;;
62790;SDS011;48830;53.426;10.300;2023-11-21T14:56:20;2.65;;;1.50;;